Bookmark and Share
Track history (hours):
 

Baltic Marshall

Last reported at 2014-Apr-19 05:27 UTC. Time now 2014-Apr-19 07:01 UTC.
Position N 51°53' E 004°19'.

Length 183 m; draft 10.2 m.

Type: Tanker. MMSI: 212118000.

NotesDate/timePositionNaut miles runAvg speedWind from/ knotsBaromVisibWave heightAir tempDewpointWater temp
2014-Apr-19 05:27N 51°53' E 004°19'0 0.0
2014-Apr-19 04:12N 51°53' E 004°19'0 0.0
2014-Apr-19 03:30N 51°53' E 004°19'0 0.0
2014-Apr-19 01:33N 51°53' E 004°19'0 0.0
2014-Apr-19 00:21N 51°53' E 004°19'0 0.0
2014-Apr-18 22:33N 51°53' E 004°19'0 0.0
2014-Apr-18 21:24N 51°53' E 004°19'0 0.0
2014-Apr-18 19:27N 51°53' E 004°19'0 0.0
2014-Apr-18 15:12N 51°53' E 004°19'0 0.0
2014-Apr-18 13:18N 51°53' E 004°19'0 0.0
2014-Apr-18 12:33N 51°53' E 004°19'0 0.0
2014-Apr-18 11:18N 51°53' E 004°19'0 0.0
2014-Apr-18 10:30N 51°53' E 004°19'0 0.0
2014-Apr-18 09:18N 51°53' E 004°19'0 0.0
2014-Apr-18 08:30N 51°53' E 004°19'0 0.0
2014-Apr-18 06:30N 51°53' E 004°19'0 0.0
2014-Apr-18 05:30N 51°53' E 004°19'0 0.0
2014-Apr-18 04:33N 51°53' E 004°19'0 0.0
2014-Apr-18 03:24N 51°53' E 004°19'0 0.0
2014-Apr-18 02:33N 51°53' E 004°19'0 0.0
2014-Apr-18 01:30N 51°53' E 004°19'0 0.0
2014-Apr-18 00:30N 51°53' E 004°19'0 0.0
2014-Apr-17 23:33N 51°53' E 004°19'0 0.0
2014-Apr-17 22:30N 51°53' E 004°19'0 0.0
2014-Apr-17 21:30N 51°53' E 004°19'0 0.0
2014-Apr-17 20:21N 51°53' E 004°19'0 0.0
2014-Apr-17 19:33N 51°53' E 004°19'0 0.0
2014-Apr-17 18:33N 51°53' E 004°19'0 0.0
2014-Apr-17 17:30N 51°53' E 004°19'0 0.3
2014-Apr-17 16:34N 51°53' E 004°18'7 7.2
2014-Apr-17 15:33N 51°57' E 004°09'1010.1
2014-Apr-17 14:34N 52°00' E 003°54'5 4.9
2014-Apr-17 13:33N 52°00' E 003°46'1010.3
2014-Apr-17 12:33N 51°55' E 003°31'0 0.1
2014-Apr-17 11:29N 51°55' E 003°31'0 0.0
2014-Apr-17 10:32N 51°55' E 003°31'0 0.0
2014-Apr-17 09:32N 51°55' E 003°31'0 0.0
2014-Apr-17 08:32N 51°55' E 003°31'0 0.2
2014-Apr-17 07:23N 51°55' E 003°31'0 0.0
2014-Apr-17 06:29N 51°55' E 003°31'1 1.6
2014-Apr-17 05:34N 51°55' E 003°29'1010.4
2014-Apr-17 04:33N 51°53' E 003°12'1414.3
2014-Apr-17 03:33N 51°49' E 002°50'1414.3
2014-Apr-17 02:33N 51°41' E 002°31'1515.4
2014-Apr-17 01:33N 51°29' E 002°15'1414.3
2014-Apr-17 00:33N 51°16' E 002°07'1514.6
2014-Apr-16 23:33N 51°08' E 001°48'1414.4
2014-Apr-16 22:34N 50°58' E 001°31'1212.4
2014-Apr-16 21:33N 50°46' E 001°23'1212.1
2014-Apr-16 20:33N 50°37' E 001°12'1212.4
2014-Apr-16 19:33N 50°29' E 000°57'1212.3
2014-Apr-16 18:33N 50°25' E 000°38'1211.8
2014-Apr-16 17:31N 50°21' E 000°20'1211.4
2014-Apr-16 16:26N 50°17' E 000°02'2611.4
2014-Apr-16 14:11N 49°56' W 000°21'812.8
2014-Apr-16 13:33N 49°48' W 000°25'1514.8
2014-Apr-16 12:33N 49°34' W 000°17'1212.0
2014-Apr-16 11:34N 49°28' W 000°01'1211.9
2014-Apr-16 10:34N 49°26' E 000°17'10 9.8
2014-Apr-16 09:33N 49°29' E 000°31'2 0.5
2014-Apr-16 06:10N 49°28' E 000°33'0 0.0
2014-Apr-16 02:28N 49°28' E 000°33'0 0.0
2014-Apr-16 01:28N 49°28' E 000°33'0 0.0
2014-Apr-16 00:22N 49°28' E 000°33'0 0.0
2014-Apr-15 23:22N 49°28' E 000°33'0 0.0
2014-Apr-15 22:16N 49°28' E 000°33'0 0.0
2014-Apr-15 21:22N 49°28' E 000°33'0 0.0
2014-Apr-15 20:16N 49°28' E 000°33'0 0.0
2014-Apr-15 15:10N 49°28' E 000°33'0 0.0
2014-Apr-13 22:22N 49°28' E 000°33'0 0.0
2014-Apr-13 20:10N 49°28' E 000°33'0 0.0
2014-Apr-13 13:28N 49°28' E 000°33'0 0.0
2014-Apr-13 12:22N 49°28' E 000°33'0 0.0
2014-Apr-13 11:22N 49°28' E 000°33'0 0.0
2014-Apr-13 09:22N 49°28' E 000°33'0 0.3
2014-Apr-13 08:33N 49°28' E 000°33'9 9.2
2014-Apr-13 07:33N 49°26' E 000°19'1413.5
2014-Apr-13 06:33N 49°28' W 000°02'4 3.8
2014-Apr-13 05:25N 49°29' W 000°08'0 0.0
2014-Apr-13 04:31N 49°29' W 000°08'0 0.1
2014-Apr-13 03:31N 49°29' W 000°08'0 0.0
2014-Apr-13 02:31N 49°29' W 000°08'0 0.0
2014-Apr-13 01:31N 49°29' W 000°08'2 1.8
2014-Apr-13 00:33N 49°30' W 000°11'1111.0
2014-Apr-12 23:33N 49°39' W 000°20'5212.3
2014-Apr-12 19:21N 50°29' W 000°01'1211.4
2014-Apr-12 18:19N 50°33' E 000°17'912.2
2014-Apr-12 17:33N 50°35' E 000°31'1413.5
2014-Apr-12 16:34N 50°43' E 000°49'1514.6
2014-Apr-12 15:34N 50°51' E 001°08'1414.5
2014-Apr-12 14:33N 51°02' E 001°23'1313.2
2014-Apr-12 13:33N 51°10' E 001°39'1212.0
2014-Apr-12 12:33N 51°20' E 001°51'1211.7
2014-Apr-12 11:34N 51°29' E 002°03'1212.1
2014-Apr-12 10:33N 51°38' E 002°16'1613.1
2014-Apr-12 09:21N 51°50' E 002°32'1114.0
2014-Apr-12 08:33N 51°58' E 002°45'1413.2
2014-Apr-12 07:31N 52°02' E 003°06'1414.5
2014-Apr-12 06:34N 52°03' E 003°29'1414.4
2014-Apr-12 05:34N 52°03' E 003°52'1212.4
2014-Apr-12 04:34N 51°57' E 004°10'8 8.0
2014-Apr-12 03:33N 51°54' E 004°22'0 0.0
2014-Apr-12 02:30N 51°54' E 004°22'0 0.0
2014-Apr-12 01:27N 51°54' E 004°22'0 0.0
2014-Apr-12 00:33N 51°54' E 004°22'0 0.0
2014-Apr-11 23:33N 51°54' E 004°22'0 0.0
2014-Apr-11 22:18N 51°54' E 004°22'0 0.0
2014-Apr-11 21:30N 51°54' E 004°22'0 0.0
2014-Apr-11 20:30N 51°54' E 004°22'0 0.0
2014-Apr-11 19:33N 51°54' E 004°22'0 0.0
2014-Apr-11 18:18N 51°54' E 004°22'0 0.0
2014-Apr-11 17:24N 51°54' E 004°22'0 0.0
2014-Apr-11 16:03N 51°54' E 004°22'0 0.0
2014-Apr-11 15:33N 51°54' E 004°22'0 0.0
2014-Apr-11 14:27N 51°54' E 004°22'0 0.0
2014-Apr-11 13:30N 51°54' E 004°22'0 0.0
2014-Apr-11 12:24N 51°54' E 004°22'0 0.0
2014-Apr-11 11:24N 51°54' E 004°22'0 0.0
2014-Apr-11 09:30N 51°54' E 004°22'0 0.0
2014-Apr-11 08:30N 51°54' E 004°22'0 0.0
2014-Apr-11 07:33N 51°54' E 004°22'0 0.0
2014-Apr-11 06:27N 51°54' E 004°22'0 0.0
2014-Apr-11 05:24N 51°54' E 004°22'0 0.0
2014-Apr-11 03:33N 51°54' E 004°22'0 0.0
2014-Apr-11 01:33N 51°54' E 004°22'0 0.0
2014-Apr-11 00:33N 51°54' E 004°22'0 0.0
2014-Apr-10 23:24N 51°54' E 004°22'0 0.0
2014-Apr-10 22:18N 51°54' E 004°22'0 0.0
2014-Apr-10 21:30N 51°54' E 004°22'1 1.2
2014-Apr-10 20:33N 51°54' E 004°20'8 8.2
2014-Apr-10 19:33N 51°58' E 004°09'1212.2
2014-Apr-10 18:33N 52°00' E 003°49'1110.5
2014-Apr-10 17:33N 52°06' E 003°35'4 2.8
2014-Apr-10 16:08N 52°10' E 003°34'0 0.1
2014-Apr-10 13:26N 52°10' E 003°34'0 0.0
2014-Apr-10 12:26N 52°10' E 003°34'0 0.0
2014-Apr-10 11:20N 52°10' E 003°34'0 0.0
2014-Apr-10 10:32N 52°10' E 003°34'0 0.0
2014-Apr-10 08:29N 52°10' E 003°34'0 0.1
2014-Apr-10 07:20N 52°10' E 003°34'0 0.0
2014-Apr-10 06:32N 52°10' E 003°34'0 0.0
2014-Apr-10 05:32N 52°10' E 003°34'0 0.0
2014-Apr-10 04:32N 52°10' E 003°34'0 0.1
2014-Apr-10 03:32N 52°10' E 003°34'0 0.1
2014-Apr-10 02:32N 52°10' E 003°34'0 0.0
2014-Apr-10 01:20N 52°10' E 003°34'0 0.0
2014-Apr-10 00:23N 52°10' E 003°34'0 0.0
2014-Apr-09 22:32N 52°10' E 003°34'0 0.0
2014-Apr-09 21:32N 52°10' E 003°34'0 0.0
2014-Apr-09 20:32N 52°10' E 003°34'0 0.0
2014-Apr-09 19:32N 52°10' E 003°34'0 0.1
2014-Apr-09 18:32N 52°10' E 003°34'0 0.1
2014-Apr-09 17:29N 52°10' E 003°34'0 0.0
2014-Apr-09 16:32N 52°10' E 003°34'0 0.1
2014-Apr-09 15:23N 52°10' E 003°34'0 0.1
2014-Apr-09 14:29N 52°10' E 003°34'0 0.0
2014-Apr-09 13:29N 52°10' E 003°34'0 0.0
2014-Apr-09 12:20N 52°10' E 003°34'0 0.0
2014-Apr-09 11:23N 52°10' E 003°34'0 0.0
2014-Apr-09 06:20N 52°10' E 003°34'0 0.1
2014-Apr-09 05:32N 52°10' E 003°34'  

Dump ship's entire track history

sailing weather and tide predictions

Baltic Marshall — C4KD2 — position and weather